createdAt,value
2023-04-10T00:00:57.687Z,100496.75
2023-04-10T00:03:24.803Z,100499.41
2023-04-10T00:05:54.580Z,100490.63
2023-04-10T00:08:23.601Z,100495.13
2023-04-10T00:10:50.216Z,100488.06
2023-04-10T00:13:16.988Z,100485.44
2023-04-10T00:15:43.814Z,100479.41
2023-04-10T00:18:10.365Z,100475.06
2023-04-10T00:20:36.831Z,100482.09
2023-04-10T00:23:03.409Z,100475.06
2023-04-10T00:25:30.291Z,100468.06
2023-04-10T00:27:56.800Z,100467.22
2023-04-10T00:30:23.341Z,100466.31
2023-04-10T00:32:49.806Z,100452.28
2023-04-10T00:35:16.896Z,100456.63
2023-04-10T00:37:43.380Z,100449.63
2023-04-10T00:40:10.229Z,100442.69
2023-04-10T00:42:37.265Z,100441.75
2023-04-10T00:45:04.092Z,100437.47
2023-04-10T00:47:31.240Z,100439.28
2023-04-10T00:49:57.811Z,100428.75
2023-04-10T00:52:26.457Z,100432.44
2023-04-10T00:54:53.100Z,100437.69
2023-04-10T00:57:19.796Z,100439.47
2023-04-10T00:59:46.596Z,100431.63
2023-04-10T01:02:14.626Z,100429.00
2023-04-10T01:04:42.174Z,100427.31
2023-04-10T01:07:51.833Z,100435.38
2023-04-10T01:10:34.444Z,100425.72
2023-04-10T01:13:16.742Z,100427.56
2023-04-10T01:16:20.692Z,100427.56
2023-04-10T01:19:00.700Z,100425.84
2023-04-10T01:21:29.515Z,100418.75
2023-04-10T01:24:21.542Z,100420.72
2023-04-10T01:27:20.937Z,100421.63
2023-04-10T01:29:52.540Z,100416.38
2023-04-10T01:32:22.394Z,100419.06
2023-04-10T01:34:55.574Z,100420.94
2023-04-10T01:37:30.550Z,100420.16
2023-04-10T01:40:03.351Z,100409.63
2023-04-10T01:42:33.966Z,100404.38
2023-04-10T01:45:01.987Z,100400.88
2023-04-10T01:47:33.094Z,100402.72
2023-04-10T01:50:02.021Z,100399.31
2023-04-10T01:52:32.570Z,100391.41
2023-04-10T01:55:05.749Z,100394.97
2023-04-10T01:57:42.817Z,100385.44
2023-04-10T02:00:11.159Z,100389.84
2023-04-10T02:02:37.838Z,100386.44
2023-04-10T02:05:12.356Z,100392.66
2023-04-10T02:08:22.112Z,100386.00
2023-04-10T02:11:02.652Z,100388.63
2023-04-10T02:13:32.521Z,100382.44
2023-04-10T02:16:07.144Z,100386.91
2023-04-10T02:18:54.621Z,100380.88
2023-04-10T02:21:30.114Z,100377.38
2023-04-10T02:23:59.816Z,100377.47
2023-04-10T02:26:28.598Z,100373.16
2023-04-10T02:28:57.883Z,100379.34
2023-04-10T02:31:28.124Z,100380.28
2023-04-10T02:33:56.325Z,100366.38
2023-04-10T02:36:29.458Z,100376.88
2023-04-10T02:38:58.251Z,100366.38
2023-04-10T02:41:28.250Z,100359.19
2023-04-10T02:44:12.898Z,100369.13
2023-04-10T02:58:51.277Z,100371.88
2023-04-10T03:01:51.252Z,100367.53
2023-04-10T03:07:43.490Z,100358.84
2023-04-10T03:10:09.918Z,100344.94
2023-04-10T03:12:38.829Z,100345.88
2023-04-10T03:15:06.129Z,100338.97
2023-04-10T03:17:32.869Z,100341.59
2023-04-10T03:19:59.461Z,100338.22
2023-04-10T03:22:31.186Z,100338.22
2023-04-10T03:25:00.221Z,100341.78
2023-04-10T03:27:27.114Z,100337.53
2023-04-10T03:30:04.071Z,100339.28
2023-04-10T03:32:44.622Z,100326.94
2023-04-10T03:35:13.562Z,100331.41
2023-04-10T03:37:40.094Z,100330.50
2023-04-10T03:40:13.047Z,100336.66
2023-04-10T03:42:42.606Z,100318.25
2023-04-10T03:45:09.752Z,100318.25
2023-04-10T03:47:36.466Z,100314.84
2023-04-10T03:50:05.228Z,100315.69
2023-04-10T03:52:33.047Z,100320.94
2023-04-10T03:54:59.646Z,100325.38
2023-04-10T03:57:28.465Z,100320.13
2023-04-10T03:59:55.330Z,100323.56
2023-04-10T04:02:24.415Z,100321.03
2023-04-10T04:04:51.307Z,100321.03
2023-04-10T04:07:18.066Z,100323.56
2023-04-10T04:09:44.607Z,100328.84
2023-04-10T04:14:53.152Z,100329.63
2023-04-10T04:17:19.690Z,100331.41
2023-04-10T04:19:46.206Z,100328.72
2023-04-10T04:22:12.697Z,100328.66
2023-04-10T04:24:39.065Z,100332.91
2023-04-10T04:27:05.989Z,100329.34
2023-04-10T04:29:32.461Z,100340.75
2023-04-10T04:31:59.023Z,100334.56
2023-04-10T04:34:25.712Z,100329.28
2023-04-10T04:36:52.356Z,100331.91
2023-04-10T04:39:18.851Z,100332.78
2023-04-10T04:41:45.407Z,100330.22
2023-04-10T04:44:11.858Z,100328.53
2023-04-10T04:46:38.280Z,100329.50
2023-04-10T04:49:04.809Z,100331.28
2023-04-10T04:51:31.204Z,100329.56
2023-04-10T04:53:57.772Z,100327.94
2023-04-10T04:56:24.372Z,100327.06
2023-04-10T04:58:50.859Z,100321.03
2023-04-10T05:01:17.713Z,100321.09
2023-04-10T05:03:44.259Z,100319.31
2023-04-10T05:06:11.035Z,100314.13
2023-04-10T05:08:37.523Z,100310.59
2023-04-10T05:11:04.098Z,100315.91
2023-04-10T05:13:30.881Z,100306.31
2023-04-10T05:15:57.420Z,100308.09
2023-04-10T05:18:24.108Z,100310.72
2023-04-10T05:20:50.864Z,100307.22
2023-04-10T05:23:17.411Z,100308.03
2023-04-10T05:25:43.925Z,100304.47
2023-04-10T05:28:10.449Z,100311.38
2023-04-10T05:30:36.979Z,100311.25
2023-04-10T05:33:03.582Z,100313.75
2023-04-10T05:35:30.350Z,100317.00
2023-04-10T05:37:57.090Z,100313.31
2023-04-10T05:40:23.635Z,100314.03
2023-04-10T05:42:50.150Z,100306.78
2023-04-10T05:45:16.948Z,100315.31
2023-04-10T05:47:43.480Z,100308.06
2023-04-10T05:50:10.569Z,100310.47
2023-04-10T05:52:37.141Z,100311.13
2023-04-10T05:55:03.980Z,100307.34
2023-04-10T05:57:30.783Z,100315.03
2023-04-10T05:59:57.295Z,100302.59
2023-04-10T06:02:24.719Z,100304.16
2023-04-10T06:04:51.472Z,100303.16
2023-04-10T06:07:18.211Z,100302.00
2023-04-10T06:09:44.693Z,100298.44
2023-04-10T06:12:11.769Z,100293.06
2023-04-10T06:14:38.379Z,100292.94
2023-04-10T06:17:04.921Z,100285.81
2023-04-10T06:19:31.562Z,100286.59
2023-04-10T06:21:58.113Z,100289.94
2023-04-10T06:24:24.609Z,100283.66
2023-04-10T06:26:51.074Z,100287.84
2023-04-10T06:29:17.637Z,100290.34
2023-04-10T06:31:44.477Z,100284.84
2023-04-10T06:34:11.103Z,100280.22
2023-04-10T06:36:37.904Z,100279.03
2023-04-10T06:39:04.543Z,100279.56
2023-04-10T06:41:31.201Z,100279.22
2023-04-10T06:43:57.693Z,100281.47
2023-04-10T06:46:24.284Z,100278.34
2023-04-10T06:48:50.963Z,100276.19
2023-04-10T06:51:17.561Z,100272.13
2023-04-10T06:53:44.098Z,100266.47
2023-04-10T06:56:10.867Z,100267.53
2023-04-10T06:58:37.472Z,100263.53
2023-04-10T07:01:04.766Z,100251.66
2023-04-10T07:03:32.681Z,100251.06
2023-04-10T07:06:00.183Z,100245.22
2023-04-10T07:08:26.588Z,100242.94
2023-04-10T07:10:53.156Z,100235.28
2023-04-10T07:13:19.660Z,100239.88
2023-04-10T07:15:46.170Z,100240.22
2023-04-10T07:18:12.727Z,100230.72
2023-04-10T07:20:39.239Z,100224.81
2023-04-10T07:23:05.919Z,100222.44
2023-04-10T07:25:33.633Z,100219.97
2023-04-10T07:28:00.116Z,100213.97
2023-04-10T07:30:26.694Z,100215.88
2023-04-10T07:32:53.434Z,100208.16
2023-04-10T07:35:20.373Z,100210.06
2023-04-10T07:37:51.477Z,100201.25
2023-04-10T07:40:18.227Z,100203.09
2023-04-10T07:42:44.793Z,100203.91
2023-04-10T07:45:11.524Z,100204.75
2023-04-10T07:47:38.351Z,100208.28
2023-04-10T07:50:05.530Z,100203.91
2023-04-10T07:52:32.062Z,100204.91
2023-04-10T07:55:01.352Z,100191.91
2023-04-10T07:57:27.832Z,100196.59
2023-04-10T07:59:54.393Z,100185.38
2023-04-10T08:02:21.084Z,100173.41
2023-04-10T08:04:47.911Z,100167.69
2023-04-10T08:07:14.466Z,100169.97
2023-04-10T08:09:41.165Z,100159.16
2023-04-10T08:12:07.670Z,100170.41
2023-04-10T08:14:34.223Z,100156.28
2023-04-10T08:17:01.230Z,100153.53
2023-04-10T08:19:28.156Z,100145.59
2023-04-10T08:21:54.757Z,100143.91
2023-04-10T08:24:22.840Z,100134.25
2023-04-10T08:26:49.775Z,100135.09
2023-04-10T08:29:16.430Z,100130.75
2023-04-10T08:31:42.889Z,100122.78
2023-04-10T08:34:09.267Z,100118.25
2023-04-10T08:36:35.784Z,100120.91
2023-04-10T08:39:02.307Z,100120.91
2023-04-10T08:41:28.926Z,100116.53
2023-04-10T08:43:57.700Z,100109.53
2023-04-10T08:46:27.581Z,100103.28
2023-04-10T08:49:05.142Z,100098.22
2023-04-10T08:51:56.440Z,100106.91
2023-04-10T08:54:32.719Z,100095.03
2023-04-10T08:57:01.335Z,100093.75
2023-04-10T08:59:30.859Z,100095.25
2023-04-10T09:01:57.821Z,100088.75
2023-04-10T09:04:25.634Z,100092.91
2023-04-10T09:06:55.724Z,100087.25
2023-04-10T09:09:22.301Z,100080.78
2023-04-10T09:11:51.907Z,100086.69
2023-04-10T09:14:22.331Z,100073.97
2023-04-10T09:16:49.582Z,100075.00
2023-04-10T09:19:33.352Z,100066.59
2023-04-10T09:22:00.669Z,100075.13
2023-04-10T09:24:27.931Z,100068.94
2023-04-10T09:26:55.388Z,100058.25
2023-04-10T09:29:22.220Z,100054.59
2023-04-10T09:31:50.685Z,100050.03
2023-04-10T09:34:23.767Z,100053.34
2023-04-10T09:37:01.576Z,100042.63
2023-04-10T09:39:36.934Z,100045.53
2023-04-10T09:42:03.689Z,100030.84
2023-04-10T09:44:31.271Z,100042.91
2023-04-10T09:47:18.934Z,100029.41
2023-04-10T09:49:49.408Z,100027.91
2023-04-10T09:52:29.944Z,100026.91
2023-04-10T09:54:58.631Z,100022.00
2023-04-10T09:57:27.651Z,100023.66
2023-04-10T09:59:58.957Z,100023.38
2023-04-10T10:02:28.577Z,100023.75
2023-04-10T10:04:57.099Z,100019.94
2023-04-10T10:07:24.434Z,100013.59
2023-04-10T10:09:52.145Z,100011.97
2023-04-10T10:15:04.561Z,99991.97
2023-04-10T10:18:06.837Z,99988.50
2023-04-10T10:20:36.193Z,99974.81
2023-04-10T10:23:04.278Z,99980.03
2023-04-10T10:25:31.567Z,99982.97
2023-04-10T10:28:05.540Z,99976.69
2023-04-10T10:30:33.246Z,99970.94
2023-04-10T10:33:03.377Z,99959.13
2023-04-10T10:35:35.665Z,99962.53
2023-04-10T10:38:04.061Z,99960.19
2023-04-10T10:40:44.303Z,99954.41
2023-04-10T10:43:20.573Z,99952.03
2023-04-10T10:45:54.556Z,99949.22
2023-04-10T10:48:21.123Z,99943.75
2023-04-10T10:51:02.005Z,99937.44
2023-04-10T10:53:40.565Z,99935.72
2023-04-10T10:56:19.055Z,99929.25
2023-04-10T10:58:50.986Z,99916.88
2023-04-10T11:01:19.130Z,99908.59
2023-04-10T11:03:46.281Z,99892.19
2023-04-10T11:06:17.053Z,99902.59
2023-04-10T11:08:46.804Z,99892.06
2023-04-10T11:11:17.715Z,99904.69
2023-04-10T11:13:50.789Z,99884.72
2023-04-10T11:16:17.692Z,99875.97
2023-04-10T11:18:51.247Z,99881.16
2023-04-10T11:21:23.761Z,99870.16
2023-04-10T11:23:50.201Z,99873.47
2023-04-10T11:26:41.551Z,99863.78
2023-04-10T11:29:17.354Z,99869.38
2023-04-10T11:31:45.185Z,99855.25
2023-04-10T11:34:12.302Z,99848.63
2023-04-10T11:36:40.822Z,99843.06
2023-04-10T11:39:15.954Z,99830.19
2023-04-10T11:41:46.995Z,99826.91
2023-04-10T11:44:14.723Z,99835.41
2023-04-10T11:46:50.816Z,99810.47
2023-04-10T11:49:19.541Z,99816.31
2023-04-10T11:51:47.809Z,99817.41
2023-04-10T11:54:19.841Z,99794.53
2023-04-10T11:56:58.916Z,99789.09
2023-04-10T11:59:26.625Z,99786.97
2023-04-10T12:02:03.127Z,99790.72
2023-04-10T12:04:29.816Z,99779.84
2023-04-10T12:06:57.573Z,99777.81
2023-04-10T12:09:24.174Z,99772.41
2023-04-10T12:12:01.523Z,99783.19
2023-04-10T12:14:42.316Z,99785.84
2023-04-10T12:17:11.046Z,99782.47
2023-04-10T12:19:41.499Z,99778.44
2023-04-10T12:22:11.843Z,99775.13
2023-04-10T12:24:52.489Z,99764.53
2023-04-10T12:27:20.892Z,99765.72
2023-04-10T12:29:48.973Z,99749.91
2023-04-10T12:32:16.144Z,99749.91
2023-04-10T12:34:49.492Z,99752.13
2023-04-10T12:37:16.041Z,99729.16
2023-04-10T12:39:42.534Z,99736.41
2023-04-10T12:42:16.991Z,99721.19
2023-04-10T12:44:56.584Z,99731.72
2023-04-10T12:47:24.187Z,99727.75
2023-04-10T12:50:06.721Z,99713.25
2023-04-10T12:52:33.583Z,99704.94
2023-04-10T12:55:17.332Z,99701.91
2023-04-10T12:57:48.752Z,99713.63
2023-04-10T13:00:17.947Z,99687.16
2023-04-10T13:02:45.845Z,99694.13
2023-04-10T13:05:12.616Z,99696.09
2023-04-10T13:07:40.132Z,99671.53
2023-04-10T13:10:07.991Z,99675.03
2023-04-10T13:12:36.237Z,99665.09
2023-04-10T13:15:02.921Z,99663.66
2023-04-10T13:17:29.579Z,99659.44
2023-04-10T13:19:56.283Z,99634.50
2023-04-10T13:22:22.834Z,99635.72
2023-04-10T13:24:49.499Z,99628.63
2023-04-10T13:27:17.959Z,99618.88
2023-04-10T13:29:44.557Z,99628.88
2023-04-10T13:32:11.132Z,99594.06
2023-04-10T13:34:37.776Z,99604.72
2023-04-10T13:37:04.561Z,99592.38
2023-04-10T13:39:31.400Z,99578.34
2023-04-10T13:42:02.062Z,99579.41
2023-04-10T13:44:28.682Z,99599.84
2023-04-10T13:47:06.938Z,99578.81
2023-04-10T14:13:28.682Z,99546.03
2023-04-10T14:15:55.925Z,99527.00
2023-04-10T14:18:26.339Z,99518.84
2023-04-10T14:21:12.173Z,99524.75
2023-04-10T14:24:23.728Z,99522.44
2023-04-10T14:26:43.297Z,99513.34
2023-04-10T14:29:16.243Z,99506.41
2023-04-10T14:31:57.598Z,99505.00
2023-04-10T14:34:28.022Z,99495.84
2023-04-10T14:36:59.675Z,99497.22
2023-04-10T14:39:28.643Z,99501.94
2023-04-10T14:42:13.234Z,99490.03
2023-04-10T14:44:41.335Z,99481.50
2023-04-10T14:47:13.846Z,99482.50
2023-04-10T14:49:49.439Z,99476.28
2023-04-10T14:52:22.822Z,99460.53
2023-04-10T14:54:56.187Z,99461.88
2023-04-10T14:57:24.940Z,99459.03
2023-04-10T14:59:53.077Z,99444.66
2023-04-10T15:02:28.434Z,99440.94
2023-04-10T15:05:00.191Z,99416.84
2023-04-10T15:07:29.316Z,99395.25
2023-04-10T15:10:04.391Z,99401.59
2023-04-10T15:12:31.168Z,99404.09
2023-04-10T15:15:05.028Z,99412.09
2023-04-10T15:17:34.581Z,99416.75
2023-04-10T15:20:01.197Z,99416.88
2023-04-10T15:22:29.297Z,99409.97
2023-04-10T15:24:55.947Z,99412.78
2023-04-10T15:27:26.218Z,99407.69
2023-04-10T15:29:52.613Z,99400.78
2023-04-10T15:32:38.756Z,99404.38
2023-04-10T15:35:07.482Z,99406.53
2023-04-10T15:37:57.165Z,99399.44
2023-04-10T15:40:55.715Z,99399.91
2023-04-10T15:43:44.790Z,99399.69
2023-04-10T15:46:39.461Z,99393.47
2023-04-10T15:52:32.859Z,99372.31
2023-04-10T15:58:46.683Z,99364.56
2023-04-10T16:15:56.922Z,99334.25
2023-04-10T16:18:23.424Z,99331.84
2023-04-10T16:20:50.000Z,99345.19
2023-04-10T16:23:16.571Z,99334.53
2023-04-10T16:25:43.141Z,99335.53
2023-04-10T16:28:09.755Z,99325.97
2023-04-10T16:30:36.767Z,99331.63
2023-04-10T16:33:04.110Z,99325.44
2023-04-10T16:35:31.024Z,99327.44
2023-04-10T16:37:57.694Z,99309.94
2023-04-10T16:40:27.639Z,99305.69
2023-04-10T16:42:54.215Z,99306.03
2023-04-10T16:45:20.748Z,99286.81
2023-04-10T16:47:47.326Z,99280.81
2023-04-10T16:50:13.920Z,99276.63
2023-04-10T16:52:40.538Z,99276.91
2023-04-10T16:55:07.490Z,99268.25
2023-04-10T16:57:34.010Z,99261.22
2023-04-10T17:00:00.569Z,99254.38
2023-04-10T17:02:28.371Z,99247.53
2023-04-10T17:04:55.748Z,99245.00
2023-04-10T17:07:23.247Z,99245.34
2023-04-10T17:09:49.791Z,99237.47
2023-04-10T17:12:16.324Z,99234.13
2023-04-10T17:14:42.978Z,99218.28
2023-04-10T17:17:09.602Z,99214.78
2023-04-10T17:19:36.335Z,99205.28
2023-04-10T17:22:02.911Z,99200.09
2023-04-10T17:24:31.525Z,99199.38
2023-04-10T17:26:58.349Z,99189.06
2023-04-10T17:29:25.820Z,99167.19
2023-04-10T17:31:52.532Z,99173.66
2023-04-10T17:34:19.113Z,99176.47
2023-04-10T17:36:45.711Z,99180.13
2023-04-10T17:39:13.485Z,99177.78
2023-04-10T17:41:40.193Z,99184.41
2023-04-10T17:44:06.688Z,99191.72
2023-04-10T17:46:33.594Z,99176.16
2023-04-10T17:49:01.431Z,99177.31
2023-04-10T17:51:28.364Z,99160.66
2023-04-10T17:53:57.537Z,99160.97
2023-04-10T17:56:24.042Z,99168.28
2023-04-10T17:58:53.095Z,99177.56
2023-04-10T18:01:24.298Z,99183.16
2023-04-10T18:03:50.981Z,99188.63
2023-04-10T18:06:17.562Z,99200.25
2023-04-10T18:08:44.316Z,99207.53
2023-04-10T18:11:11.067Z,99213.88
2023-04-10T18:13:37.706Z,99201.84
2023-04-10T18:16:04.851Z,99221.09
2023-04-10T18:18:31.428Z,99236.97
2023-04-10T18:20:58.007Z,99238.66
2023-04-10T18:23:25.848Z,99263.34
2023-04-10T18:25:55.956Z,99264.84
2023-04-10T18:28:23.488Z,99278.72
2023-04-10T18:30:56.926Z,99284.94
2023-04-10T18:33:24.717Z,99278.16
2023-04-10T18:35:58.724Z,99276.59
2023-04-10T18:38:26.136Z,99276.56
2023-04-10T18:40:57.487Z,99283.41
2023-04-10T18:43:27.944Z,99272.72
2023-04-10T18:45:54.916Z,99260.81
2023-04-10T18:48:22.040Z,99253.19
2023-04-10T18:50:52.425Z,99248.84
2023-04-10T18:53:19.633Z,99243.09
2023-04-10T18:55:53.201Z,99237.59
2023-04-10T18:58:21.158Z,99246.25
2023-04-10T19:00:48.179Z,99232.91
2023-04-10T19:03:15.266Z,99230.19
2023-04-10T19:05:43.502Z,99222.00
2023-04-10T19:08:14.254Z,99221.66
2023-04-10T19:10:42.424Z,99225.50
2023-04-10T19:13:09.768Z,99221.53
2023-04-10T19:15:44.499Z,99230.16
2023-04-10T19:18:13.035Z,99220.41
2023-04-10T19:20:49.813Z,99222.44
2023-04-10T19:23:17.949Z,99198.88
2023-04-10T19:25:44.837Z,99189.50
2023-04-10T19:28:11.632Z,99205.50
2023-04-10T19:30:38.201Z,99196.00
2023-04-10T19:33:04.858Z,99185.56
2023-04-10T19:35:31.405Z,99187.47
2023-04-10T19:37:58.093Z,99187.47
2023-04-10T19:40:24.753Z,99172.47
2023-04-10T19:42:51.424Z,99178.56
2023-04-10T19:45:18.149Z,99189.03
2023-04-10T19:47:44.781Z,99189.78
2023-04-10T19:50:11.374Z,99177.38
2023-04-10T19:52:38.287Z,99183.53
2023-04-10T19:55:05.399Z,99183.41
2023-04-10T19:57:31.942Z,99187.94
2023-04-10T19:59:58.843Z,99186.28
2023-04-10T20:02:25.781Z,99193.50
2023-04-10T20:04:52.728Z,99208.72
2023-04-10T20:07:19.324Z,99231.91
2023-04-10T20:09:45.929Z,99248.97
2023-04-10T20:12:12.888Z,99237.16
2023-04-10T20:14:39.500Z,99225.16
2023-04-10T20:17:06.005Z,99210.59
2023-04-10T20:19:32.563Z,99199.66
2023-04-10T20:22:01.509Z,99189.34
2023-04-10T20:24:28.919Z,99175.66
2023-04-10T20:26:55.414Z,99169.84
2023-04-10T20:29:22.062Z,99164.09
2023-04-10T20:31:48.565Z,99156.53
2023-04-10T20:34:15.275Z,99151.59
2023-04-10T20:36:41.859Z,99145.81
2023-04-10T20:39:08.450Z,99138.13
2023-04-10T20:41:35.055Z,99131.38
2023-04-10T20:44:01.649Z,99113.97
2023-04-10T20:46:28.274Z,99104.50
2023-04-10T20:48:59.314Z,99123.94
2023-04-10T20:51:27.365Z,99122.38
2023-04-10T20:53:54.104Z,99117.22
2023-04-10T20:56:22.786Z,99104.97
2023-04-10T20:58:51.538Z,99097.88
2023-04-10T21:01:18.154Z,99092.72
2023-04-10T21:03:44.938Z,99094.41
2023-04-10T21:06:11.655Z,99110.38
2023-04-10T21:08:38.184Z,99100.63
2023-04-10T21:11:04.826Z,99097.06
2023-04-10T21:13:31.356Z,99110.25
2023-04-10T21:15:57.916Z,99109.41
2023-04-10T21:18:24.487Z,99110.25
2023-04-10T21:20:51.075Z,99113.81
2023-04-10T21:23:17.615Z,99102.44
2023-04-10T21:25:51.835Z,99095.47
2023-04-10T21:28:18.547Z,99098.00
2023-04-10T21:30:45.160Z,99087.44
2023-04-10T21:33:11.726Z,99076.88
2023-04-10T21:35:38.375Z,99070.88
2023-04-10T21:38:04.992Z,99107.09
2023-04-10T21:40:34.351Z,99110.81
2023-04-10T21:43:02.257Z,99099.66
2023-04-10T21:45:30.170Z,99072.41
2023-04-10T21:47:56.715Z,99036.44
2023-04-10T21:50:24.804Z,99044.47
2023-04-10T21:52:51.400Z,99054.31
2023-04-10T21:55:18.053Z,99067.72
2023-04-10T21:57:44.621Z,99043.13
2023-04-10T22:00:13.851Z,99029.31
2023-04-10T22:02:40.687Z,99038.22
2023-04-10T22:05:07.831Z,99052.47
2023-04-10T22:07:34.324Z,99048.13
2023-04-10T22:10:00.929Z,99056.19
2023-04-10T22:12:27.567Z,99055.56
2023-04-10T22:20:34.576Z,99040.97
2023-04-10T22:23:19.138Z,99022.66
2023-04-10T22:25:50.510Z,99022.53
2023-04-10T22:28:17.074Z,99007.78
2023-04-10T22:30:43.627Z,99022.03
2023-04-10T22:33:10.727Z,99030.19
2023-04-10T22:35:37.430Z,99027.56
2023-04-10T22:38:08.443Z,99025.13
2023-04-10T22:40:35.303Z,99021.75
2023-04-10T22:43:01.935Z,99035.91
2023-04-10T22:45:34.323Z,99042.16
2023-04-10T22:48:01.010Z,99037.72
2023-04-10T22:50:35.284Z,99031.72
2023-04-10T22:53:01.770Z,99034.94
2023-04-10T22:55:31.729Z,99015.66
2023-04-10T22:58:13.136Z,99019.38
2023-04-10T23:00:43.985Z,99027.19
2023-04-10T23:04:02.334Z,99021.28
2023-04-10T23:13:53.709Z,99012.41
2023-04-10T23:16:23.158Z,99010.81
2023-04-10T23:18:53.263Z,99011.78
2023-04-10T23:21:29.912Z,99016.47
2023-04-10T23:23:58.468Z,98994.41
2023-04-10T23:29:26.302Z,98992.72
2023-04-10T23:31:56.156Z,98992.72
2023-04-10T23:34:22.815Z,98996.94
2023-04-10T23:37:00.923Z,98988.41
2023-04-10T23:39:27.521Z,98982.19
2023-04-10T23:42:09.573Z,98977.97
2023-04-10T23:50:13.137Z,98974.72
2023-04-10T23:58:06.648Z,98986.81
